TimeMDT,TemperatureF,Dew PointF,Humidity,Sea Level PressureIn,VisibilityMPH,Wind Direction,Wind SpeedMPH,Gust SpeedMPH,PrecipitationIn,Events,Conditions,WindDirDegrees,DateUTC
12:15 AM,35.6,6.8,30,30.21,10.0,NW,11.5,-,N/A,,Clear,310,2012-11-03 06:15:00
12:35 AM,35.6,6.8,30,30.21,10.0,NW,12.7,-,N/A,,Clear,310,2012-11-03 06:35:00
12:55 AM,35.6,8.6,33,30.22,10.0,NW,11.5,-,N/A,,Clear,310,2012-11-03 06:55:00
1:15 AM,35.6,8.6,33,30.22,10.0,NW,8.1,-,N/A,,Clear,320,2012-11-03 07:15:00
1:35 AM,33.8,6.8,32,30.23,10.0,North,6.9,-,N/A,,Clear,350,2012-11-03 07:35:00
2:15 AM,33.8,6.8,32,30.23,10.0,NNW,12.7,-,N/A,,Clear,330,2012-11-03 08:15:00
2:35 AM,33.8,6.8,32,30.24,10.0,NNW,12.7,-,N/A,,Clear,340,2012-11-03 08:35:00
2:55 AM,33.8,6.8,32,30.24,10.0,NNW,10.4,-,N/A,,Clear,340,2012-11-03 08:55:00
3:15 AM,33.8,6.8,32,30.25,10.0,NNW,12.7,-,N/A,,Clear,340,2012-11-03 09:15:00
3:34 AM,33.8,8.6,35,30.25,10.0,NNW,11.5,-,N/A,,Clear,340,2012-11-03 09:34:00
3:55 AM,32.0,8.6,38,30.25,10.0,NNW,13.8,-,N/A,,Clear,340,2012-11-03 09:55:00
4:15 AM,32.0,8.6,38,30.26,10.0,North,6.9,-,N/A,,Clear,350,2012-11-03 10:15:00
4:35 AM,30.2,6.8,37,30.26,10.0,North,8.1,-,N/A,,Clear,350,2012-11-03 10:35:00
4:55 AM,32.0,6.8,35,30.27,10.0,North,10.4,-,N/A,,Clear,350,2012-11-03 10:55:00
5:15 AM,33.8,6.8,32,30.27,10.0,NNW,10.4,-,N/A,,Clear,340,2012-11-03 11:15:00
5:35 AM,33.8,6.8,32,30.27,10.0,NNW,11.5,-,N/A,,Clear,340,2012-11-03 11:35:00
5:55 AM,33.8,8.6,35,30.27,10.0,NNW,12.7,-,N/A,,Clear,340,2012-11-03 11:55:00
6:15 AM,33.8,8.6,35,30.27,10.0,NNW,12.7,-,N/A,,Clear,340,2012-11-03 12:15:00
6:35 AM,28.4,6.8,40,30.27,10.0,NNW,16.1,-,N/A,,Clear,340,2012-11-03 12:35:00
6:55 AM,30.2,8.6,40,30.27,10.0,NNW,12.7,-,N/A,,Clear,340,2012-11-03 12:55:00
7:15 AM,28.4,6.8,40,30.28,10.0,NNW,12.7,-,N/A,,Clear,340,2012-11-03 13:15:00
7:35 AM,32.0,8.6,38,30.28,10.0,NNW,12.7,-,N/A,,Clear,340,2012-11-03 13:35:00
7:54 AM,30.2,8.6,40,30.28,10.0,NNW,11.5,-,N/A,,Clear,330,2012-11-03 13:54:00
8:15 AM,33.8,8.6,35,30.28,10.0,North,16.1,-,N/A,,Clear,350,2012-11-03 14:15:00
8:35 AM,33.8,6.8,32,30.29,10.0,NNW,12.7,-,N/A,,Clear,330,2012-11-03 14:35:00
8:54 AM,35.6,8.6,33,30.29,10.0,NNW,15.0,-,N/A,,Clear,330,2012-11-03 14:54:00
9:15 AM,37.4,8.6,30,30.29,10.0,NW,18.4,-,N/A,,Clear,320,2012-11-03 15:15:00
9:35 AM,41.0,8.6,26,30.29,10.0,NW,16.1,20.7,N/A,,Clear,310,2012-11-03 15:35:00
9:55 AM,42.8,8.6,25,30.29,10.0,NW,15.0,-,N/A,,Clear,320,2012-11-03 15:55:00
10:15 AM,44.6,8.6,23,30.29,10.0,NW,15.0,-,N/A,,Clear,310,2012-11-03 16:15:00
10:35 AM,48.2,8.6,20,30.29,10.0,NW,9.2,-,N/A,,Clear,320,2012-11-03 16:35:00
10:54 AM,50.0,12.2,22,30.29,10.0,South,10.4,-,N/A,,Clear,170,2012-11-03 16:54:00
11:15 AM,50.0,12.2,22,30.29,10.0,SSE,10.4,-,N/A,,Clear,160,2012-11-03 17:15:00
11:35 AM,50.0,12.2,22,30.29,10.0,SSE,9.2,-,N/A,,Clear,150,2012-11-03 17:35:00
11:55 AM,50.0,10.4,20,30.29,10.0,SSE,9.2,-,N/A,,Clear,150,2012-11-03 17:55:00
12:14 PM,50.0,12.2,22,30.28,10.0,SSE,6.9,-,N/A,,Clear,160,2012-11-03 18:14:00
12:35 PM,50.0,10.4,20,30.28,10.0,SSE,8.1,-,N/A,,Clear,160,2012-11-03 18:35:00
12:55 PM,53.6,12.2,19,30.27,10.0,SSE,9.2,-,N/A,,Clear,160,2012-11-03 18:55:00
1:15 PM,53.6,10.4,18,30.27,10.0,SSE,9.2,-,N/A,,Clear,160,2012-11-03 19:15:00
1:35 PM,55.4,10.4,17,30.26,10.0,South,8.1,-,N/A,,Clear,180,2012-11-03 19:35:00
1:55 PM,59.0,10.4,15,30.25,10.0,ESE,5.8,-,N/A,,Clear,110,2012-11-03 19:55:00
2:15 PM,57.2,10.4,16,30.24,10.0,South,5.8,-,N/A,,Clear,170,2012-11-03 20:15:00
2:35 PM,59.0,10.4,15,30.24,10.0,East,3.5,-,N/A,,Clear,80,2012-11-03 20:35:00
2:55 PM,55.4,8.6,15,30.23,10.0,Calm,Calm,-,N/A,,Clear,0,2012-11-03 20:55:00
3:15 PM,59.0,8.6,14,30.23,10.0,Calm,Calm,-,N/A,,Clear,0,2012-11-03 21:15:00
3:35 PM,60.8,6.8,12,30.23,10.0,NW,11.5,17.3,N/A,,Clear,320,2012-11-03 21:35:00
3:55 PM,60.8,3.2,10,30.23,10.0,NW,11.5,-,N/A,,Clear,310,2012-11-03 21:55:00
4:14 PM,60.8,3.2,10,30.22,10.0,WNW,13.8,19.6,N/A,,Clear,300,2012-11-03 22:14:00
4:35 PM,59.0,3.2,11,30.22,10.0,NW,12.7,-,N/A,,Clear,310,2012-11-03 22:35:00
4:55 PM,59.0,3.2,11,30.22,10.0,NW,10.4,-,N/A,,Clear,320,2012-11-03 22:55:00
5:15 PM,59.0,3.2,11,30.23,10.0,NW,13.8,18.4,N/A,,Clear,320,2012-11-03 23:15:00
5:35 PM,59.0,3.2,11,30.23,10.0,NNW,13.8,17.3,N/A,,Clear,330,2012-11-03 23:35:00
5:55 PM,53.6,3.2,13,30.24,10.0,NNW,9.2,-,N/A,,Clear,330,2012-11-03 23:55:00
6:15 PM,53.6,3.2,13,30.24,10.0,NNW,10.4,-,N/A,,Clear,330,2012-11-04 00:15:00
6:35 PM,53.6,5.0,14,30.24,10.0,NNW,5.8,-,N/A,,Clear,330,2012-11-04 00:35:00
6:55 PM,46.4,5.0,18,30.26,10.0,NW,5.8,-,N/A,,Clear,320,2012-11-04 00:55:00
7:15 PM,46.4,5.0,18,30.26,10.0,Calm,Calm,-,N/A,,Clear,0,2012-11-04 01:15:00
7:35 PM,44.6,5.0,20,30.27,10.0,WNW,3.5,-,N/A,,Clear,300,2012-11-04 01:35:00
7:55 PM,44.6,5.0,20,30.28,10.0,Calm,Calm,-,N/A,,Clear,0,2012-11-04 01:55:00
8:15 PM,42.8,6.8,23,30.28,10.0,ENE,3.5,-,N/A,,Clear,60,2012-11-04 02:15:00
8:35 PM,42.8,5.0,21,30.28,10.0,NNE,5.8,-,N/A,,Clear,20,2012-11-04 02:35:00
8:55 PM,44.6,6.8,21,30.29,10.0,NNW,11.5,-,N/A,,Clear,330,2012-11-04 02:55:00
9:15 PM,42.8,6.8,23,30.29,10.0,NNW,10.4,-,N/A,,Clear,340,2012-11-04 03:15:00
9:35 PM,41.0,6.8,24,30.29,10.0,NNW,13.8,-,N/A,,Clear,330,2012-11-04 03:35:00
9:55 PM,42.8,8.6,25,30.31,10.0,NNW,13.8,-,N/A,,Clear,330,2012-11-04 03:55:00
10:14 PM,41.0,8.6,26,30.31,10.0,NNW,12.7,-,N/A,,Clear,340,2012-11-04 04:14:00
10:35 PM,42.8,8.6,25,30.31,10.0,NNW,16.1,-,N/A,,Clear,330,2012-11-04 04:35:00
10:55 PM,41.0,8.6,26,30.31,10.0,NNW,11.5,-,N/A,,Clear,340,2012-11-04 04:55:00
11:15 PM,41.0,10.4,29,30.31,10.0,North,11.5,-,N/A,,Clear,360,2012-11-04 05:15:00
11:35 PM,41.0,10.4,29,30.31,10.0,NNW,12.7,-,N/A,,Clear,340,2012-11-04 05:35:00
11:54 PM,37.4,8.6,30,30.31,10.0,North,10.4,-,N/A,,Clear,350,2012-11-04 05:54:00